createdAt,value
2019-05-07T00:03:59.178Z,98174.00
2019-05-07T00:08:00.085Z,98169.00
2019-05-07T00:12:02.729Z,98162.00
2019-05-07T00:16:03.816Z,98153.00
2019-05-07T00:20:05.664Z,98157.00
2019-05-07T00:24:08.833Z,98158.00
2019-05-07T00:28:12.038Z,98159.00
2019-05-07T00:32:12.588Z,98157.00
2019-05-07T00:36:15.392Z,98150.00
2019-05-07T00:40:18.519Z,98145.00
2019-05-07T00:44:21.975Z,98148.00
2019-05-07T00:48:23.482Z,98137.00
2019-05-07T00:52:24.618Z,98148.00
2019-05-07T00:56:25.779Z,98137.00
2019-05-07T01:00:27.172Z,98143.00
2019-05-07T01:04:28.128Z,98131.00
2019-05-07T01:08:28.977Z,98130.00
2019-05-07T01:12:29.848Z,98126.00
2019-05-07T01:16:32.801Z,98128.00
2019-05-07T01:20:33.602Z,98125.00
2019-05-07T01:24:34.663Z,98130.00
2019-05-07T01:28:54.405Z,98124.00
2019-05-07T01:33:00.092Z,98124.00
2019-05-07T01:37:02.699Z,98127.00
2019-05-07T01:41:03.934Z,98127.00
2019-05-07T01:45:05.741Z,98127.00
2019-05-07T01:49:06.633Z,98125.00
2019-05-07T01:53:07.524Z,98126.00
2019-05-07T01:57:08.520Z,98128.00
2019-05-07T02:01:09.567Z,98128.00
2019-05-07T02:05:15.489Z,98133.00
2019-05-07T02:09:34.038Z,98142.00
2019-05-07T02:13:35.131Z,98133.00
2019-05-07T02:17:36.021Z,98135.00
2019-05-07T02:21:36.973Z,98128.00
2019-05-07T02:25:37.866Z,98136.00
2019-05-07T02:29:38.836Z,98133.00
2019-05-07T02:33:43.101Z,98139.00
2019-05-07T02:37:50.988Z,98134.00
2019-05-07T02:41:47.677Z,98131.00
2019-05-07T02:46:19.811Z,98127.00
2019-05-07T02:50:05.899Z,98133.00
2019-05-07T02:54:08.873Z,98127.00
2019-05-07T02:58:09.983Z,98128.00
2019-05-07T03:02:13.723Z,98127.00
2019-05-07T03:06:13.853Z,98133.00
2019-05-07T03:10:14.907Z,98132.00
2019-05-07T03:14:16.081Z,98125.00
2019-05-07T03:18:19.150Z,98137.00
2019-05-07T03:22:22.883Z,98125.00
2019-05-07T03:26:24.452Z,98130.00
2019-05-07T03:30:46.109Z,98134.00
2019-05-07T03:34:49.169Z,98123.00
2019-05-07T03:38:50.117Z,98122.00
2019-05-07T03:42:53.507Z,98128.00
2019-05-07T03:47:02.141Z,98126.00
2019-05-07T03:50:58.635Z,98122.00
2019-05-07T03:54:59.517Z,98115.00
2019-05-07T03:59:03.457Z,98116.00
2019-05-07T04:03:03.620Z,98123.00
2019-05-07T04:07:04.929Z,98129.00
2019-05-07T04:11:05.823Z,98116.00
2019-05-07T04:15:07.036Z,98123.00
2019-05-07T04:19:07.976Z,98126.00
2019-05-07T04:23:08.879Z,98122.00
2019-05-07T04:27:13.043Z,98117.00
2019-05-07T04:31:14.258Z,98125.00
2019-05-07T04:35:17.140Z,98126.00
2019-05-07T04:39:18.127Z,98124.00
2019-05-07T04:43:18.981Z,98121.00
2019-05-07T04:47:36.956Z,98129.00
2019-05-07T04:51:24.668Z,98123.00
2019-05-07T04:55:25.546Z,98125.00
2019-05-07T04:59:26.436Z,98134.00
2019-05-07T05:03:28.536Z,98135.00
2019-05-07T05:07:29.517Z,98139.00
2019-05-07T05:11:33.303Z,98139.00
2019-05-07T05:15:33.150Z,98140.00
2019-05-07T05:19:34.111Z,98143.00
2019-05-07T05:23:41.762Z,98138.00
2019-05-07T05:27:43.057Z,98139.00
2019-05-07T05:31:44.146Z,98150.00
2019-05-07T05:35:45.017Z,98147.00
2019-05-07T05:39:45.874Z,98152.00
2019-05-07T05:43:48.755Z,98151.00
2019-05-07T05:48:03.621Z,98146.00
2019-05-07T05:51:57.064Z,98150.00
2019-05-07T05:55:59.816Z,98149.00
2019-05-07T06:00:05.855Z,98156.00
2019-05-07T06:04:22.126Z,98150.00
2019-05-07T06:08:25.549Z,98148.00
2019-05-07T06:12:32.821Z,98141.00
2019-05-07T06:16:38.559Z,98141.00
2019-05-07T06:20:42.849Z,98139.00
2019-05-07T06:24:56.535Z,98140.00
2019-05-07T06:28:57.566Z,98140.00
2019-05-07T06:32:58.504Z,98144.00
2019-05-07T06:36:59.592Z,98141.00
2019-05-07T06:41:02.718Z,98146.00
2019-05-07T06:45:22.828Z,98144.00
2019-05-07T06:49:24.074Z,98139.00
2019-05-07T06:53:27.412Z,98140.00
2019-05-07T06:57:29.876Z,98141.00
2019-05-07T07:01:32.733Z,98147.00
2019-05-07T07:05:35.659Z,98155.00
2019-05-07T07:09:44.839Z,98149.00
2019-05-07T07:13:45.800Z,98149.00
2019-05-07T07:17:46.863Z,98155.00
2019-05-07T07:21:48.021Z,98149.00
2019-05-07T07:25:49.075Z,98148.00
2019-05-07T07:30:07.220Z,98151.00
2019-05-07T07:34:08.802Z,98143.00
2019-05-07T07:38:28.371Z,98139.00
2019-05-07T07:42:29.262Z,98139.00
2019-05-07T07:46:30.189Z,98135.00
2019-05-07T07:50:33.056Z,98148.00
2019-05-07T07:54:33.822Z,98135.00
2019-05-07T07:58:36.634Z,98137.00
2019-05-07T08:02:39.548Z,98136.00
2019-05-07T08:06:41.994Z,98135.00
2019-05-07T08:10:43.228Z,98122.00
2019-05-07T08:14:44.230Z,98128.00
2019-05-07T08:18:46.590Z,98122.00
2019-05-07T08:22:47.477Z,98123.00
2019-05-07T08:26:48.395Z,98126.00
2019-05-07T08:30:52.552Z,98120.00
2019-05-07T08:35:04.686Z,98122.00
2019-05-07T08:39:06.480Z,98117.00
2019-05-07T08:43:07.876Z,98112.00
2019-05-07T08:47:12.170Z,98110.00
2019-05-07T08:51:13.368Z,98117.00
2019-05-07T08:55:14.448Z,98113.00
2019-05-07T08:59:15.646Z,98107.00
2019-05-07T09:03:22.174Z,98115.00
2019-05-07T09:07:22.033Z,98108.00
2019-05-07T09:11:23.095Z,98101.00
2019-05-07T09:15:24.064Z,98102.00
2019-05-07T09:19:25.157Z,98097.00
2019-05-07T09:23:26.321Z,98091.00
2019-05-07T09:27:29.316Z,98089.00
2019-05-07T09:31:52.566Z,98090.00
2019-05-07T09:35:53.775Z,98091.00
2019-05-07T09:39:54.850Z,98085.00
2019-05-07T09:43:56.214Z,98083.00
2019-05-07T09:47:57.066Z,98074.00
2019-05-07T09:51:58.073Z,98079.00
2019-05-07T09:55:59.085Z,98073.00
2019-05-07T10:00:02.273Z,98074.00
2019-05-07T10:04:03.343Z,98076.00
2019-05-07T10:08:04.504Z,98068.00
2019-05-07T10:12:07.373Z,98078.00
2019-05-07T10:16:08.338Z,98086.00
2019-05-07T10:20:19.361Z,98076.00
2019-05-07T10:24:13.236Z,98065.00
2019-05-07T10:28:14.263Z,98064.00
2019-05-07T10:32:15.712Z,98062.00
2019-05-07T10:36:16.677Z,98064.00
2019-05-07T10:40:18.042Z,98057.00
2019-05-07T10:44:22.798Z,98055.00
2019-05-07T10:48:25.928Z,98048.00
2019-05-07T10:52:27.122Z,98048.00
2019-05-07T10:56:28.023Z,98044.00
2019-05-07T11:00:29.060Z,98038.00
2019-05-07T11:04:40.192Z,98027.00
2019-05-07T11:08:33.086Z,98033.00
2019-05-07T11:12:34.479Z,98029.00
2019-05-07T11:16:37.358Z,98017.00
2019-05-07T11:20:47.384Z,98016.00
2019-05-07T11:24:42.698Z,98017.00
2019-05-07T11:28:43.866Z,98013.00
2019-05-07T11:32:44.982Z,98008.00
2019-05-07T11:36:46.482Z,98008.00
2019-05-07T11:40:47.526Z,98002.00
2019-05-07T11:44:49.533Z,98008.00
2019-05-07T11:48:52.533Z,98004.00
2019-05-07T11:53:01.427Z,97989.00
2019-05-07T11:57:02.759Z,97993.00
2019-05-07T12:01:05.726Z,97992.00
2019-05-07T12:05:06.818Z,97987.00
2019-05-07T12:09:07.895Z,97984.00
2019-05-07T12:13:08.883Z,97986.00
2019-05-07T12:17:11.852Z,97977.00
2019-05-07T12:21:20.773Z,97972.00
2019-05-07T12:25:17.301Z,97972.00
2019-05-07T12:29:18.206Z,97966.00
2019-05-07T12:33:35.987Z,97961.00
2019-05-07T12:37:37.051Z,97960.00
2019-05-07T12:41:38.181Z,97957.00
2019-05-07T12:45:41.984Z,97956.00
2019-05-07T12:49:42.980Z,97955.00
2019-05-07T12:53:48.373Z,97955.00
2019-05-07T12:57:49.261Z,97952.00
2019-05-07T13:01:52.165Z,97941.00
2019-05-07T13:05:53.206Z,97940.00
2019-05-07T13:09:54.417Z,97945.00
2019-05-07T13:13:55.395Z,97930.00
2019-05-07T13:17:56.258Z,97937.00
2019-05-07T13:21:57.251Z,97934.00
2019-05-07T13:25:58.233Z,97929.00
2019-05-07T13:29:59.118Z,97933.00
2019-05-07T13:34:02.942Z,97916.00
2019-05-07T13:38:06.217Z,97913.00
2019-05-07T13:42:09.165Z,97912.00
2019-05-07T13:46:12.268Z,97915.00
2019-05-07T13:50:13.411Z,97915.00
2019-05-07T13:54:14.560Z,97905.00
2019-05-07T13:58:15.691Z,97908.00
2019-05-07T14:02:18.823Z,97888.00
2019-05-07T14:06:37.946Z,97888.00
2019-05-07T14:10:38.901Z,97888.00
2019-05-07T14:14:39.766Z,97881.00
2019-05-07T14:18:40.874Z,97879.00
2019-05-07T14:22:42.501Z,97883.00
2019-05-07T14:26:43.684Z,97880.00
2019-05-07T14:30:44.662Z,97878.00
2019-05-07T14:35:02.476Z,97863.00
2019-05-07T14:39:06.390Z,97863.00
2019-05-07T14:43:09.237Z,97866.00
2019-05-07T14:47:10.184Z,97856.00
2019-05-07T14:51:12.671Z,97857.00
2019-05-07T14:55:14.182Z,97853.00
2019-05-07T14:59:15.306Z,97855.00
2019-05-07T15:03:17.332Z,97849.00
2019-05-07T15:07:18.397Z,97847.00
2019-05-07T15:11:19.933Z,97846.00
2019-05-07T15:15:21.928Z,97840.00
2019-05-07T15:19:23.336Z,97842.00
2019-05-07T15:23:26.499Z,97842.00
2019-05-07T15:27:27.761Z,97840.00
2019-05-07T15:31:47.772Z,97834.00
2019-05-07T15:35:48.795Z,97832.00
2019-05-07T15:39:49.656Z,97834.00
2019-05-07T15:43:52.161Z,97834.00
2019-05-07T15:47:55.341Z,97832.00
2019-05-07T15:51:58.233Z,97823.00
2019-05-07T15:55:59.190Z,97820.00
2019-05-07T16:00:04.897Z,97814.00
2019-05-07T16:04:18.807Z,97812.00
2019-05-07T16:08:12.370Z,97802.00
2019-05-07T16:12:15.362Z,97796.00
2019-05-07T16:16:16.351Z,97795.00
2019-05-07T16:20:17.864Z,97788.00
2019-05-07T16:24:18.957Z,97794.00
2019-05-07T16:28:21.920Z,97787.00
2019-05-07T16:32:24.236Z,97788.00
2019-05-07T16:36:25.256Z,97769.00
2019-05-07T16:40:26.235Z,97768.00
2019-05-07T16:44:27.484Z,97769.00
2019-05-07T16:48:28.584Z,97767.00
2019-05-07T16:52:29.580Z,97759.00
2019-05-07T16:56:30.591Z,97765.00
2019-05-07T17:00:33.517Z,97755.00
2019-05-07T17:04:34.484Z,97756.00
2019-05-07T17:08:49.131Z,97757.00
2019-05-07T17:12:52.250Z,97760.00
2019-05-07T17:16:53.106Z,97750.00
2019-05-07T17:20:56.262Z,97746.00
2019-05-07T17:24:57.376Z,97745.00
2019-05-07T17:28:58.381Z,97751.00
2019-05-07T17:33:01.782Z,97747.00
2019-05-07T17:37:02.346Z,97743.00
2019-05-07T17:41:10.907Z,97748.00
2019-05-07T17:45:06.531Z,97739.00
2019-05-07T17:49:07.644Z,97741.00
2019-05-07T17:53:08.909Z,97746.00
2019-05-07T17:57:12.791Z,97739.00
2019-05-07T18:01:13.239Z,97740.00
2019-05-07T18:05:14.450Z,97741.00
2019-05-07T18:09:15.330Z,97733.00
2019-05-07T18:13:16.169Z,97731.00
2019-05-07T18:17:34.290Z,97732.00
2019-05-07T18:21:35.181Z,97724.00
2019-05-07T18:25:38.395Z,97728.00
2019-05-07T18:29:39.384Z,97727.00
2019-05-07T18:33:48.426Z,97724.00
2019-05-07T18:37:52.848Z,97722.00
2019-05-07T18:41:54.356Z,97718.00
2019-05-07T18:45:55.584Z,97725.00
2019-05-07T18:49:56.489Z,97721.00
2019-05-07T18:53:57.444Z,97726.00
2019-05-07T18:57:58.498Z,97725.00
2019-05-07T19:01:59.521Z,97730.00
2019-05-07T19:06:02.646Z,97720.00
2019-05-07T19:10:04.705Z,97710.00
2019-05-07T19:14:05.994Z,97724.00
2019-05-07T19:18:07.284Z,97725.00
2019-05-07T19:22:08.133Z,97714.00
2019-05-07T19:26:09.545Z,97722.00
2019-05-07T19:30:12.721Z,97715.00
2019-05-07T19:34:14.252Z,97719.00
2019-05-07T19:38:15.146Z,97716.00
2019-05-07T19:42:16.053Z,97708.00
2019-05-07T19:46:17.118Z,97726.00
2019-05-07T19:50:18.278Z,97728.00
2019-05-07T19:54:19.180Z,97712.00
2019-05-07T19:58:22.828Z,97719.00
2019-05-07T20:02:43.632Z,97701.00
2019-05-07T20:06:44.804Z,97705.00
2019-05-07T20:10:51.950Z,97706.00
2019-05-07T20:14:53.110Z,97717.00
2019-05-07T20:18:54.089Z,97702.00
2019-05-07T20:22:55.073Z,97688.00
2019-05-07T20:26:56.010Z,97678.00
2019-05-07T20:30:56.992Z,97686.00
2019-05-07T20:34:57.885Z,97676.00
2019-05-07T20:38:58.759Z,97682.00
2019-05-07T20:43:01.800Z,97676.00
2019-05-07T20:47:02.779Z,97680.00
2019-05-07T20:51:03.798Z,97681.00
2019-05-07T20:55:10.142Z,97677.00
2019-05-07T20:59:12.462Z,97670.00
2019-05-07T21:03:19.300Z,97658.00
2019-05-07T21:07:22.130Z,97661.00
2019-05-07T21:11:23.057Z,97651.00
2019-05-07T21:15:23.939Z,97651.00
2019-05-07T21:19:24.873Z,97652.00
2019-05-07T21:23:25.744Z,97641.00
2019-05-07T21:27:26.691Z,97626.00
2019-05-07T21:31:27.663Z,97619.00
2019-05-07T21:35:28.584Z,97616.00
2019-05-07T21:39:29.477Z,97618.00
2019-05-07T21:43:32.531Z,97612.00
2019-05-07T21:47:33.377Z,97608.00
2019-05-07T21:51:34.382Z,97609.00
2019-05-07T21:55:41.806Z,97609.00
2019-05-07T21:59:43.272Z,97602.00
2019-05-07T22:03:46.544Z,97592.00
2019-05-07T22:07:47.513Z,97587.00
2019-05-07T22:11:48.503Z,97588.00
2019-05-07T22:15:49.560Z,97588.00
2019-05-07T22:19:52.411Z,97583.00
2019-05-07T22:23:53.253Z,97579.00
2019-05-07T22:27:54.135Z,97575.00
2019-05-07T22:31:56.931Z,97570.00
2019-05-07T22:35:57.907Z,97562.00
2019-05-07T22:39:58.812Z,97552.00
2019-05-07T22:43:59.711Z,97554.00
2019-05-07T22:48:02.700Z,97554.00
2019-05-07T22:52:03.476Z,97549.00
2019-05-07T22:56:04.461Z,97536.00
2019-05-07T23:00:06.945Z,97522.00
2019-05-07T23:04:07.843Z,97516.00
2019-05-07T23:08:08.717Z,97505.00
2019-05-07T23:12:09.902Z,97500.00
2019-05-07T23:16:12.545Z,97501.00
2019-05-07T23:20:13.785Z,97493.00
2019-05-07T23:24:14.906Z,97488.00
2019-05-07T23:28:15.772Z,97477.00
2019-05-07T23:32:16.653Z,97483.00
2019-05-07T23:36:17.592Z,97470.00
2019-05-07T23:40:22.802Z,97468.00
2019-05-07T23:44:23.630Z,97475.00
2019-05-07T23:48:24.511Z,97474.00
2019-05-07T23:52:25.375Z,97483.00
2019-05-07T23:56:26.418Z,97464.00
